Time;durP1;ratioP1;P1;durP2;ratioP2;P2;SDS_P1;SDS_P2;PMS_P1;PMS_P2;Temp;Humidity;BMP_temperature;BMP_pressure;BME280_temperature;BME280_humidity;BME280_pressure;Samples;Min_cycle;Max_cycle;Signal;HPM_P1;HPM_P2
2023/10/16 00:00:33;;;;;;;40.67;23.85;;;;;;;18.34;47.95;99139.09;1702541;83;21310;-82
2023/10/16 00:03:39;;;;;;;48.60;25.35;;;;;;;18.21;48.17;99143.64;1703794;84;21298;-82
2023/10/16 00:06:49;;;;;;;46.15;25.88;;;;;;;17.97;48.63;99148.50;1703470;84;21305;-82
2023/10/16 00:09:56;;;;;;;50.05;26.90;;;;;;;18.02;48.46;99145.84;1703573;84;21295;-82
2023/10/16 00:13:04;;;;;;;49.30;25.50;;;;;;;18.18;47.98;99148.84;1703644;84;21938;-82
2023/10/16 00:16:15;;;;;;;42.00;24.05;;;;;;;18.25;47.67;99139.79;1724539;82;21297;-82
2023/10/16 00:19:17;;;;;;;54.75;29.50;;;;;;;18.02;47.80;99131.14;1733143;82;21296;-82
2023/10/16 00:22:22;;;;;;;59.42;30.50;;;;;;;17.90;47.69;99128.48;1732036;82;21336;-82
2023/10/16 00:25:29;;;;;;;49.13;30.10;;;;;;;17.44;48.98;99126.86;1732864;82;21307;-82
2023/10/16 00:28:35;;;;;;;55.92;27.37;;;;;;;17.60;48.81;99126.88;1732696;82;21344;-83
2023/10/16 00:31:42;;;;;;;41.02;24.10;;;;;;;17.43;49.46;99127.41;1731970;82;21304;-81
2023/10/16 00:34:48;;;;;;;39.80;23.92;;;;;;;17.37;49.84;99118.73;1732557;82;21300;-80
2023/10/16 00:37:56;;;;;;;39.75;23.50;;;;;;;17.37;50.22;99121.50;1710974;82;21181;-82
2023/10/16 00:41:23;;;;;;;39.15;23.73;;;;;;;17.50;50.41;99122.56;1687758;85;21330;-82
2023/10/16 00:44:23;;;;;;;46.50;23.45;;;;;;;17.76;50.05;99125.77;1687947;85;21858;-82
2023/10/16 00:47:30;;;;;;;40.95;23.32;;;;;;;17.72;50.38;99114.34;1687613;84;21354;-81
2023/10/16 00:50:36;;;;;;;39.30;24.18;;;;;;;17.55;50.93;99111.59;1687968;85;21312;-82
2023/10/16 00:53:48;;;;;;;40.10;23.12;;;;;;;17.51;50.98;99113.72;1700450;82;21325;-82
2023/10/16 00:56:57;;;;;;;33.85;17.57;;;;;;;18.12;49.96;99108.64;1702404;84;21396;-81
2023/10/16 01:00:12;;;;;;;38.60;22.77;;;;;;;18.45;49.30;99115.73;1703412;83;21309;-82
2023/10/16 01:03:12;;;;;;;40.30;22.10;;;;;;;18.42;49.06;99104.61;1703508;84;21289;-82
2023/10/16 01:06:37;;;;;;;38.55;24.25;;;;;;;18.58;48.46;99107.88;1703678;84;21314;-82
2023/10/16 01:09:46;;;;;;;40.98;25.10;;;;;;;18.16;48.60;99101.19;1704177;84;21287;-82
2023/10/16 01:12:55;;;;;;;42.33;25.65;;;;;;;18.12;48.35;99093.42;1703887;84;21342;-82
2023/10/16 01:16:04;;;;;;;35.35;24.00;;;;;;;18.11;48.15;99090.36;1723122;82;21324;-82
2023/10/16 01:19:09;;;;;;;48.73;27.80;;;;;;;17.41;49.22;99095.05;1732981;82;21312;-82
2023/10/16 01:22:15;;;;;;;43.80;26.20;;;;;;;17.43;49.43;99089.25;1732906;82;21677;-82
2023/10/16 01:25:21;;;;;;;34.55;23.25;;;;;;;16.98;50.09;99095.07;1732800;82;21261;-82
2023/10/16 01:28:27;;;;;;;34.25;23.30;;;;;;;17.56;48.75;99084.78;1732210;82;21324;-82
2023/10/16 01:31:33;;;;;;;35.83;23.42;;;;;;;17.60;48.20;99077.66;1732941;82;21906;-82
2023/10/16 01:34:41;;;;;;;43.45;23.92;;;;;;;17.44;48.50;99079.86;1732930;82;21320;-82
2023/10/16 01:37:47;;;;;;;40.03;23.67;;;;;;;17.40;48.68;99078.14;1719892;82;21316;-82
2023/10/16 01:44:09;;;;;;;40.05;24.23;;;;;;;17.32;48.55;99065.59;1701841;84;21296;-82
2023/10/16 01:47:19;;;;;;;39.65;24.07;;;;;;;17.37;48.36;99062.91;1702041;84;21303;-82
2023/10/16 01:50:23;;;;;;;43.13;24.92;;;;;;;17.57;47.98;99058.25;1685583;85;21312;-81
2023/10/16 01:53:32;;;;;;;45.12;23.75;;;;;;;17.76;47.59;99057.47;1686831;83;21304;-81
2023/10/16 01:56:37;;;;;;;34.43;20.92;;;;;;;17.30;48.54;99055.31;1687426;85;21877;-82
2023/10/16 01:59:45;;;;;;;30.57;20.45;;;;;;;16.49;50.40;99054.62;1687475;83;21336;-82
2023/10/16 02:02:51;;;;;;;28.65;19.50;;;;;;;16.83;49.64;99047.84;1687444;85;22009;-82
2023/10/16 02:05:58;;;;;;;28.40;18.98;;;;;;;16.93;49.41;99052.72;1687019;85;21355;-82
2023/10/16 02:09:04;;;;;;;31.85;18.40;;;;;;;16.47;50.72;99046.30;1702411;83;22279;-81
2023/10/16 02:12:17;;;;;;;30.65;20.80;;;;;;;16.19;50.94;99037.45;1702920;84;21375;-83
2023/10/16 02:15:23;;;;;;;36.05;23.02;;;;;;;16.49;50.19;99029.78;1702691;84;21333;-81
2023/10/16 02:18:37;;;;;;;31.23;19.52;;;;;;;16.50;49.78;99028.69;1703696;84;21938;-82
2023/10/16 02:21:40;;;;;;;27.35;18.40;;;;;;;16.38;50.16;99025.15;1703586;84;21337;-82
2023/10/16 02:24:49;;;;;;;27.32;19.12;;;;;;;16.17;50.72;99023.88;1703075;84;21318;-81
2023/10/16 02:27:56;;;;;;;32.65;23.67;;;;;;;16.35;50.54;99020.11;1704255;84;21300;-82
2023/10/16 02:31:01;;;;;;;32.70;22.40;;;;;;;16.52;50.44;99024.32;1704121;83;21894;-82
2023/10/16 02:34:13;;;;;;;36.98;25.25;;;;;;;16.39;50.25;99024.06;1704062;84;21325;-82
2023/10/16 02:37:20;;;;;;;40.00;25.30;;;;;;;16.26;50.14;99016.06;1703236;84;21313;-82
2023/10/16 02:40:32;;;;;;;32.98;23.35;;;;;;;16.37;49.37;99012.41;1703885;84;21310;-82
2023/10/16 02:43:41;;;;;;;35.92;22.75;;;;;;;16.41;49.25;99014.14;1704098;84;21281;-82
2023/10/16 02:46:46;;;;;;;33.45;20.30;;;;;;;16.04;49.85;98998.81;1704202;83;21878;-81
2023/10/16 02:49:52;;;;;;;29.25;19.92;;;;;;;15.78;50.44;98995.19;1709641;83;21342;-81
2023/10/16 02:52:58;;;;;;;26.15;19.42;;;;;;;15.66;51.07;98991.59;1726048;83;21260;-81
2023/10/16 02:56:14;;;;;;;30.05;21.68;;;;;;;15.60;51.84;98983.73;1725790;83;21304;-81
2023/10/16 02:59:13;;;;;;;31.87;22.22;;;;;;;15.59;52.69;98977.92;1725972;83;21781;-82
2023/10/16 03:02:22;;;;;;;34.92;24.07;;;;;;;15.82;52.57;98974.33;1725980;83;21283;-81
2023/10/16 03:05:28;;;;;;;33.00;22.65;;;;;;;15.69;53.60;98969.08;1725569;83;21319;-82
2023/10/16 03:08:36;;;;;;;31.85;21.75;;;;;;;15.64;54.35;98970.34;1685381;84;21838;-81
2023/10/16 03:11:41;;;;;;;32.40;22.55;;;;;;;16.21;53.43;98965.76;1685601;85;21311;-81
2023/10/16 03:15:15;;;;;;;30.00;21.50;;;;;;;16.43;52.91;98962.32;1709290;82;21963;-82
2023/10/16 03:18:00;;;;;;;25.60;17.07;;;;;;;16.73;52.76;98953.78;1714418;83;21307;-81
2023/10/16 03:24:23;;;;;;;17.77;12.90;;;;;;;17.48;51.38;98937.30;1730447;83;21669;-82
2023/10/16 03:27:29;;;;;;;24.75;17.90;;;;;;;17.32;51.89;98937.08;1730733;83;21342;-82
2023/10/16 03:30:39;;;;;;;24.35;16.62;;;;;;;17.47;52.00;98939.78;1736595;82;21697;-82
2023/10/16 03:33:45;;;;;;;26.40;18.75;;;;;;;17.02;53.53;98933.28;1744147;82;21316;-82
2023/10/16 03:36:44;;;;;;;27.15;15.93;;;;;;;16.89;54.12;98928.64;1743255;82;21406;-82
2023/10/16 03:39:56;;;;;;;20.52;13.60;;;;;;;16.99;54.14;98919.16;1743129;82;21286;-82
2023/10/16 03:42:59;;;;;;;18.45;12.70;;;;;;;16.84;54.20;98912.82;1743951;82;21272;-80
2023/10/16 03:46:07;;;;;;;19.92;12.68;;;;;;;17.07;53.91;98914.58;1743141;82;21298;-81
2023/10/16 03:49:14;;;;;;;15.93;11.03;;;;;;;16.97;54.52;98902.83;1743906;82;21271;-81
2023/10/16 03:52:22;;;;;;;15.50;10.58;;;;;;;16.91;54.95;98898.31;1744017;82;21314;-81
2023/10/16 03:55:28;;;;;;;13.15;8.73;;;;;;;17.22;54.75;98893.25;1743953;82;21821;-81
2023/10/16 03:58:41;;;;;;;16.32;7.75;;;;;;;17.23;55.05;98892.18;1743933;82;21279;-82
2023/10/16 04:01:44;;;;;;;14.73;8.25;;;;;;;17.15;55.87;98896.75;1743918;82;21263;-82
2023/10/16 04:04:54;;;;;;;12.78;8.05;;;;;;;17.28;56.16;98893.63;1744024;82;21272;-82
2023/10/16 04:08:01;;;;;;;11.57;7.95;;;;;;;17.75;55.29;98891.81;1730051;82;21293;-82
2023/10/16 04:11:08;;;;;;;14.18;7.55;;;;;;;17.79;55.37;98890.20;1712568;83;22026;-83
2023/10/16 04:14:14;;;;;;;17.70;7.40;;;;;;;18.17;54.75;98888.42;1725233;83;21314;-81
2023/10/16 04:17:25;;;;;;;13.48;7.22;;;;;;;18.54;53.88;98886.59;1725288;83;21658;-81
2023/10/16 04:20:46;;;;;;;14.28;7.37;;;;;;;18.20;55.07;98890.66;1725586;83;21330;-81
2023/10/16 04:23:53;;;;;;;10.98;6.95;;;;;;;18.37;55.17;98890.02;1726280;83;21875;-82
2023/10/16 04:33:48;;;;;;;9.95;7.08;;;;;;;18.70;55.53;98866.81;1726029;83;21326;-81
2023/10/16 04:43:37;;;;;;;13.62;6.62;;;;;;;19.12;54.96;98859.92;1732497;83;21291;-82
2023/10/16 04:46:55;;;;;;;14.07;7.03;;;;;;;19.10;55.28;98846.90;1732202;83;21295;-82
2023/10/16 04:49:38;;;;;;;12.33;6.67;;;;;;;19.37;54.43;98848.14;1732578;83;21316;-82
2023/10/16 04:56:15;;;;;;;12.70;6.30;;;;;;;19.38;55.01;98840.66;1707436;84;21335;-82
2023/10/16 04:59:36;;;;;;;13.78;7.78;;;;;;;19.21;55.73;98856.10;1707167;84;21312;-82
2023/10/16 05:02:33;;;;;;;10.38;7.17;;;;;;;18.89;56.50;98840.37;1706604;84;21335;-82
2023/10/16 05:05:45;;;;;;;11.15;7.30;;;;;;;19.21;56.78;98826.17;1706829;84;21339;-82
2023/10/16 05:19:02;;;;;;;9.35;5.75;;;;;;;19.93;55.75;98812.89;1708598;84;21863;-82
2023/10/16 06:16:28;;;;;;;7.75;4.62;;;;;;;21.44;51.58;98778.94;1753462;79;21244;-82
2023/10/16 06:19:42;;;;;;;6.47;4.15;;;;;;;21.46;51.52;98773.11;1757331;79;21212;-83
2023/10/16 06:22:54;;;;;;;6.83;4.25;;;;;;;21.44;51.50;98769.20;1768638;79;21298;-82
2023/10/16 06:26:03;;;;;;;8.18;4.22;;;;;;;21.58;51.31;98763.30;1719336;81;21295;-82
2023/10/16 06:29:12;;;;;;;7.80;4.70;;;;;;;21.79;50.96;98763.21;1721884;81;21327;-84
2023/10/16 06:32:20;;;;;;;6.00;4.22;;;;;;;21.61;51.30;98760.52;1762520;79;21318;-85
2023/10/16 06:35:26;;;;;;;8.33;4.15;;;;;;;21.65;51.71;98754.66;1728797;81;21335;-85
2023/10/16 06:38:32;;;;;;;9.05;5.25;;;;;;;21.69;51.75;98749.63;1761651;79;21885;-83
2023/10/16 06:41:37;;;;;;;10.28;4.90;;;;;;;21.47;52.55;98744.17;1752826;79;21271;-84
2023/10/16 06:44:43;;;;;;;6.20;4.03;;;;;;;21.74;51.91;98734.85;1761557;79;21303;-83
2023/10/16 06:47:49;;;;;;;9.55;4.20;;;;;;;21.85;51.66;98725.87;1773417;79;21574;-84
2023/10/16 06:51:03;;;;;;;10.28;3.77;;;;;;;21.75;51.81;98719.81;1761621;79;21288;-83
2023/10/16 06:54:05;;;;;;;9.95;4.47;;;;;;;21.80;51.80;98717.55;1769180;79;21679;-83
2023/10/16 06:57:14;;;;;;;14.20;3.85;;;;;;;21.52;52.61;98710.77;1732373;81;21342;-81
2023/10/16 07:00:27;;;;;;;5.95;3.92;;;;;;;21.74;51.84;98714.52;1692449;81;31078;-83
2023/10/16 07:03:33;;;;;;;6.08;3.85;;;;;;;22.20;50.95;98697.77;1677661;84;21920;-81
2023/10/16 07:06:42;;;;;;;5.60;4.40;;;;;;;22.03;51.31;98702.09;1650598;85;21306;-81
2023/10/16 07:09:49;;;;;;;12.23;4.80;;;;;;;21.93;51.42;98704.39;1671951;84;21975;-83
2023/10/16 07:12:59;;;;;;;6.40;3.75;;;;;;;22.04;51.17;98689.83;1663640;85;21836;-81
2023/10/16 07:16:15;;;;;;;5.23;3.73;;;;;;;22.45;50.44;98687.55;1655587;84;21333;-82
2023/10/16 07:19:20;;;;;;;4.72;3.33;;;;;;;22.39;50.56;98672.81;1673286;84;21607;-82
2023/10/16 07:22:31;;;;;;;10.35;3.62;;;;;;;22.27;50.80;98667.39;1651514;85;21330;-82
2023/10/16 07:28:58;;;;;;;11.15;4.00;;;;;;;22.38;50.40;98676.73;1651968;85;21270;-83
2023/10/16 07:32:08;;;;;;;5.92;3.37;;;;;;;22.51;49.99;98682.19;1650429;85;21760;-82
2023/10/16 07:35:17;;;;;;;9.98;3.87;;;;;;;22.71;49.47;98676.95;1645277;84;21315;-83
2023/10/16 07:38:21;;;;;;;10.45;3.80;;;;;;;22.48;49.77;98683.33;1640214;85;22261;-83
2023/10/16 07:41:27;;;;;;;6.45;3.52;;;;;;;22.52;49.58;98683.84;1640789;85;21845;-84
2023/10/16 07:44:35;;;;;;;7.53;3.50;;;;;;;22.22;50.52;98689.72;1646142;85;21307;-83
2023/10/16 07:47:40;;;;;;;4.75;1.87;;;;;;;21.89;51.34;98732.52;1635546;85;21205;-82
2023/10/16 07:50:47;;;;;;;9.03;2.45;;;;;;;22.18;48.76;98769.64;1637281;85;21828;-81
2023/10/16 07:53:52;;;;;;;9.35;1.62;;;;;;;21.56;48.16;98773.06;1637909;85;21298;-82
2023/10/16 07:56:58;;;;;;;2.67;0.88;;;;;;;20.51;49.29;98794.11;1640322;84;21314;-81
2023/10/16 08:00:13;;;;;;;1.32;0.68;;;;;;;19.45;51.21;98793.30;1642088;85;21966;-80
2023/10/16 08:03:14;;;;;;;2.08;0.60;;;;;;;18.48;52.15;98792.66;1644976;85;21283;-79
2023/10/16 08:06:24;;;;;;;1.00;0.70;;;;;;;17.86;53.29;98810.63;1675863;84;21302;-80
2023/10/16 08:12:35;;;;;;;2.02;0.72;;;;;;;16.83;54.93;98836.59;1642237;85;21275;-81
2023/10/16 08:15:44;;;;;;;1.05;0.45;;;;;;;16.81;55.17;98831.89;1644641;85;21297;-80
2023/10/16 08:18:47;;;;;;;1.12;0.70;;;;;;;16.44;55.70;98828.77;1648696;85;21313;-79
2023/10/16 08:21:57;;;;;;;0.37;0.37;;;;;;;16.33;55.59;98833.28;1638139;85;21308;-80
2023/10/16 08:25:07;;;;;;;0.82;0.30;;;;;;;16.27;55.47;98843.37;1680133;84;21923;-80
2023/10/16 08:28:22;;;;;;;0.72;0.55;;;;;;;16.18;55.74;98828.31;1657139;84;21292;-81
2023/10/16 08:31:24;;;;;;;1.20;0.68;;;;;;;15.98;56.00;98843.95;1646435;85;21312;-80
2023/10/16 08:34:31;;;;;;;2.15;0.68;;;;;;;16.06;55.48;98847.70;1650279;84;21988;-82
2023/10/16 08:37:39;;;;;;;13.70;1.22;;;;;;;15.81;55.95;98863.22;1676860;84;21300;-82
2023/10/16 08:40:57;;;;;;;2.92;1.10;;;;;;;15.63;56.37;98844.07;1661155;84;21349;-80
2023/10/16 08:44:03;;;;;;;2.83;0.90;;;;;;;15.32;57.33;98842.58;1607173;87;21318;-81
2023/10/16 08:50:17;;;;;;;7.53;2.30;;;;;;;15.11;57.83;98834.97;1636377;85;21316;-81
2023/10/16 08:53:33;;;;;;;8.75;3.08;;;;;;;14.90;58.18;98846.88;1661693;85;21307;-82
2023/10/16 08:56:40;;;;;;;6.10;3.10;;;;;;;14.55;58.91;98862.02;1661902;84;21299;-81
2023/10/16 08:59:45;;;;;;;6.20;2.65;;;;;;;14.83;57.82;98866.82;1668644;85;21360;-81
2023/10/16 09:02:52;;;;;;;4.75;2.47;;;;;;;14.75;58.00;98849.28;1659161;84;21686;-81
2023/10/16 09:06:01;;;;;;;7.35;3.10;;;;;;;14.46;58.79;98855.14;1667650;84;21304;-82
2023/10/16 09:09:16;;;;;;;7.85;4.03;;;;;;;14.55;58.33;98865.59;1654669;85;21331;-82
2023/10/16 09:12:37;;;;;;;7.97;3.90;;;;;;;14.61;58.16;98884.98;1653323;85;22185;-81
2023/10/16 09:15:39;;;;;;;7.85;3.52;;;;;;;14.48;58.65;98914.91;1629862;85;21885;-81
2023/10/16 09:18:46;;;;;;;8.33;3.75;;;;;;;14.35;58.72;98920.07;1653476;85;21291;-82
2023/10/16 09:21:53;;;;;;;14.00;4.42;;;;;;;14.33;58.92;98900.20;1655776;85;21884;-83
2023/10/16 09:24:58;;;;;;;13.50;4.60;;;;;;;14.14;59.81;98937.08;1666414;84;21366;-81
2023/10/16 09:28:04;;;;;;;8.60;3.80;;;;;;;14.31;59.06;98936.20;1638881;85;21338;-81
2023/10/16 09:31:17;;;;;;;9.05;3.75;;;;;;;14.20;59.86;98927.34;1632189;87;21338;-81
2023/10/16 09:34:27;;;;;;;6.72;2.62;;;;;;;14.23;59.83;98936.52;1610990;87;21314;-81
2023/10/16 09:37:34;;;;;;;7.72;1.35;;;;;;;14.31;59.90;98929.86;1632942;86;21353;-80
2023/10/16 09:40:44;;;;;;;6.10;1.42;;;;;;;14.35;59.83;98936.58;1640760;87;21974;-81
2023/10/16 09:43:56;;;;;;;3.52;1.32;;;;;;;14.40;59.43;98940.83;1667425;85;21308;-82
2023/10/16 09:46:56;;;;;;;3.52;1.32;;;;;;;14.38;59.23;98918.20;1630664;85;21880;-81
2023/10/16 09:50:16;;;;;;;4.50;2.10;;;;;;;14.50;58.32;98928.75;1667574;85;21867;-81
2023/10/16 09:53:17;;;;;;;2.22;1.10;;;;;;;14.41;58.43;98934.25;1646865;86;21174;-82
2023/10/16 09:56:23;;;;;;;2.40;1.30;;;;;;;14.71;57.80;98939.73;1637831;85;21327;-82
2023/10/16 09:59:41;;;;;;;4.58;0.90;;;;;;;14.78;57.85;98927.25;1657354;84;21293;-82
2023/10/16 10:02:51;;;;;;;2.52;1.10;;;;;;;14.56;58.20;98928.34;1629707;87;21990;-83
2023/10/16 10:06:07;;;;;;;1.60;0.98;;;;;;;14.53;57.98;98937.05;1657480;86;21354;-80
2023/10/16 10:12:28;;;;;;;1.67;0.90;;;;;;;14.67;56.57;98937.69;1662288;86;22017;-81
2023/10/16 10:15:36;;;;;;;;;;;;;;;14.35;57.60;98954.45;1663546;85;21707;-81
2023/10/16 10:18:44;;;;;;;;;;;;;;;14.48;57.13;98949.30;1671848;86;20283;-81
2023/10/16 10:21:53;;;;;;;2.67;1.35;;;;;;;13.73;58.99;98968.88;1650937;86;20293;-81
2023/10/16 10:25:09;;;;;;;4.35;1.67;;;;;;;14.29;57.87;98963.08;1665297;86;21286;-82
2023/10/16 10:28:32;;;;;;;4.20;1.70;;;;;;;14.17;57.78;98975.95;1650563;86;21834;-81
2023/10/16 10:31:38;;;;;;;2.98;1.47;;;;;;;14.24;57.21;98979.98;1628806;86;21344;-81
2023/10/16 10:34:44;;;;;;;1.60;0.70;;;;;;;14.38;56.76;99011.73;1663259;86;21937;-81
2023/10/16 10:37:59;;;;;;;2.20;1.00;;;;;;;14.51;56.64;99010.75;1584932;87;21215;-81
2023/10/16 10:41:18;;;;;;;4.15;2.08;;;;;;;14.57;56.11;99013.39;1628635;86;21377;-81
2023/10/16 10:44:25;;;;;;;1.75;0.90;;;;;;;14.48;55.84;99029.92;1629384;87;21317;-81
2023/10/16 10:47:33;;;;;;;2.37;1.00;;;;;;;14.37;55.88;99036.19;1636552;86;21368;-81
2023/10/16 10:50:39;;;;;;;0.75;0.50;;;;;;;14.21;56.52;99056.05;1648095;85;21747;-81
2023/10/16 10:54:06;;;;;;;0.62;0.60;;;;;;;13.97;57.44;99055.94;1644425;86;21282;-81
2023/10/16 10:57:16;;;;;;;1.87;1.00;;;;;;;14.66;55.33;99059.86;1635463;86;21331;-81
2023/10/16 11:03:45;;;;;;;1.55;0.75;;;;;;;13.92;56.83;99039.80;1628919;87;21305;-80
2023/10/16 11:06:54;;;;;;;2.22;0.90;;;;;;;13.52;57.43;99055.34;1629434;87;21313;-80
2023/10/16 11:10:00;;;;;;;1.20;0.65;;;;;;;13.19;58.41;99051.48;1638051;87;21853;-80
2023/10/16 11:13:12;;;;;;;1.40;0.80;;;;;;;13.35;58.22;99037.75;1629697;87;21387;-79
2023/10/16 11:16:18;;;;;;;2.37;1.27;;;;;;;12.99;59.66;99059.34;1618150;87;21295;-79
2023/10/16 11:19:28;;;;;;;1.52;0.60;;;;;;;12.84;59.55;99064.28;1640879;86;21298;-79
2023/10/16 11:22:34;;;;;;;2.12;0.50;;;;;;;13.73;57.23;99062.31;1653379;85;21300;-79
2023/10/16 11:25:40;;;;;;;2.80;0.70;;;;;;;12.99;58.81;99062.63;1622955;87;21897;-79
2023/10/16 11:28:48;;;;;;;1.37;0.72;;;;;;;13.08;58.95;99054.43;1663552;86;21928;-79
2023/10/16 11:31:54;;;;;;;1.47;0.85;;;;;;;13.47;57.54;99058.77;1641865;86;21745;-80
2023/10/16 11:35:13;;;;;;;2.47;1.02;;;;;;;13.34;58.15;99078.11;1652250;86;21267;-79
2023/10/16 11:38:19;;;;;;;1.90;0.88;;;;;;;13.46;57.97;99089.22;1659967;86;21984;-80
2023/10/16 11:41:24;;;;;;;0.65;0.60;;;;;;;12.95;58.94;99095.69;1654135;84;21339;-79
2023/10/16 11:44:32;;;;;;;1.17;0.50;;;;;;;13.27;58.49;99130.34;1652104;86;21310;-79
2023/10/16 11:47:43;;;;;;;11.60;0.90;;;;;;;13.29;57.45;99136.44;1631774;86;21352;-79
2023/10/16 11:50:50;;;;;;;3.62;0.75;;;;;;;13.44;57.91;99121.01;1628840;87;21367;-79
2023/10/16 11:54:02;;;;;;;4.55;1.10;;;;;;;13.24;58.11;99125.28;1637179;87;21351;-79
2023/10/16 11:57:13;;;;;;;1.20;0.80;;;;;;;13.49;56.61;99132.16;1662548;84;21296;-79
2023/10/16 12:00:30;;;;;;;1.50;0.80;;;;;;;13.49;56.15;99128.58;1659710;85;21315;-81
2023/10/16 12:03:31;;;;;;;1.05;0.60;;;;;;;13.75;55.69;99126.98;1645883;87;21284;-80
2023/10/16 12:06:38;;;;;;;2.17;0.82;;;;;;;14.20;54.73;99132.22;1631131;87;21284;-80
2023/10/16 12:09:48;;;;;;;1.25;0.70;;;;;;;14.40;54.42;99140.27;1635771;86;21853;-82
2023/10/16 12:12:55;;;;;;;1.60;0.93;;;;;;;14.37;54.23;99154.48;1647786;86;21287;-82
2023/10/16 12:16:00;;;;;;;1.20;0.70;;;;;;;14.54;54.77;99152.00;1659812;86;21638;-80
2023/10/16 12:19:09;;;;;;;1.22;0.80;;;;;;;14.72;53.82;99179.47;1659983;85;21310;-81
2023/10/16 12:22:15;;;;;;;1.27;0.68;;;;;;;15.07;53.91;99181.05;1654166;85;21982;-81
2023/10/16 12:25:27;;;;;;;1.15;0.40;;;;;;;15.14;52.91;99200.22;1654558;86;21332;-80
2023/10/16 12:28:30;;;;;;;0.70;0.55;;;;;;;14.79;53.63;99183.54;1660270;86;21327;-80
2023/10/16 12:31:36;;;;;;;1.70;0.60;;;;;;;14.78;52.54;99181.87;1635964;86;21336;-81
2023/10/16 12:34:42;;;;;;;0.40;0.40;;;;;;;14.86;53.06;99184.81;1632823;86;21341;-82
2023/10/16 12:37:55;;;;;;;0.40;0.40;;;;;;;14.98;52.75;99178.30;1629727;87;21335;-81
2023/10/16 12:40:58;;;;;;;0.88;0.50;;;;;;;14.94;52.80;99199.11;1642172;85;21315;-81
2023/10/16 12:44:05;;;;;;;1.27;0.60;;;;;;;14.95;52.68;99200.78;1647189;87;21267;-80
2023/10/16 12:47:11;;;;;;;0.50;0.40;;;;;;;14.61;52.47;99195.93;1638721;87;21328;-80
2023/10/16 12:50:18;;;;;;;0.30;0.30;;;;;;;14.72;52.54;99207.53;1635459;87;21810;-81
2023/10/16 12:53:23;;;;;;;0.60;0.40;;;;;;;14.65;53.02;99219.17;1625372;87;21256;-81
2023/10/16 12:56:28;;;;;;;0.55;0.50;;;;;;;14.92;52.51;99241.73;1648101;85;21298;-82
2023/10/16 12:59:34;;;;;;;1.50;0.90;;;;;;;15.14;53.02;99246.20;1651763;86;21292;-82
2023/10/16 13:02:49;;;;;;;0.60;0.60;;;;;;;14.75;54.05;99249.75;1661207;86;21951;-82
2023/10/16 13:05:52;;;;;;;1.22;0.60;;;;;;;14.49;54.33;99265.49;1638366;86;22004;-81
2023/10/16 13:08:58;;;;;;;1.10;0.80;;;;;;;14.41;53.10;99266.28;1664787;86;21921;-81
2023/10/16 13:12:08;;;;;;;1.17;0.70;;;;;;;14.37;53.22;99276.05;1667485;84;21314;-80
2023/10/16 13:15:04;;;;;;;;;;;;;;;14.60;54.13;99281.78;1662777;86;21308;-81
2023/10/16 13:18:14;;;;;;;0.78;0.50;;;;;;;14.85;53.10;99267.95;1639882;87;20213;-82
2023/10/16 13:21:19;;;;;;;0.70;0.53;;;;;;;14.74;53.31;99280.56;1623187;88;21385;-82
2023/10/16 13:24:20;;;;;;;1.35;0.80;;;;;;;14.83;53.43;99282.48;1639819;87;21335;-82
2023/10/16 13:27:27;;;;;;;0.85;0.65;;;;;;;14.78;53.28;99291.97;1639880;86;21691;-82
2023/10/16 13:30:33;;;;;;;1.20;1.00;;;;;;;14.90;53.38;99301.14;1655436;84;21870;-82
2023/10/16 13:33:41;;;;;;;2.00;0.90;;;;;;;14.97;53.08;99299.16;1675815;85;21288;-81
2023/10/16 13:37:58;;;;;;;1.22;0.80;;;;;;;14.87;53.75;99308.50;1675664;84;21375;-81
2023/10/16 13:40:22;;;;;;;2.25;1.12;;;;;;;14.94;53.56;99318.05;1665252;85;21367;-81
2023/10/16 13:43:28;;;;;;;1.65;1.10;;;;;;;15.04;52.70;99317.81;1675783;85;21667;-82
2023/10/16 13:46:35;;;;;;;1.62;1.10;;;;;;;15.18;53.28;99321.80;1680979;84;21351;-82
2023/10/16 13:49:41;;;;;;;1.85;1.20;;;;;;;15.07;53.29;99321.50;1681328;85;21350;-82
2023/10/16 13:52:50;;;;;;;2.05;1.42;;;;;;;15.17;53.59;99333.34;1681088;84;21398;-80
2023/10/16 13:55:59;;;;;;;5.47;1.55;;;;;;;15.03;54.03;99333.20;1681723;84;21314;-83
2023/10/16 13:59:06;;;;;;;1.72;1.07;;;;;;;14.87;54.32;99338.78;1681011;85;21863;-81
2023/10/16 14:02:11;;;;;;;1.55;1.30;;;;;;;14.92;53.25;99351.86;1675822;84;21320;-82
2023/10/16 14:05:20;;;;;;;1.95;1.27;;;;;;;15.06;53.66;99353.41;1670513;86;21913;-82
2023/10/16 14:08:36;;;;;;;4.12;1.60;;;;;;;15.02;53.28;99358.52;1671478;86;21995;-82
2023/10/16 14:11:47;;;;;;;2.85;1.50;;;;;;;15.00;53.90;99370.28;1672130;84;21324;-82
2023/10/16 14:14:51;;;;;;;4.05;1.60;;;;;;;15.16;53.35;99366.64;1672403;86;21304;-81
2023/10/16 14:17:57;;;;;;;2.52;1.77;;;;;;;15.05;53.91;99384.74;1672092;86;21323;-84
2023/10/16 14:21:10;;;;;;;2.80;1.50;;;;;;;15.20;53.90;99394.88;1668501;84;21335;-83
2023/10/16 14:24:17;;;;;;;2.65;1.82;;;;;;;15.32;53.84;99405.42;1647637;86;21290;-82
2023/10/16 14:27:25;;;;;;;6.92;2.10;;;;;;;14.82;54.81;99412.95;1643585;86;21369;-81
2023/10/16 14:30:33;;;;;;;2.17;1.35;;;;;;;15.03;54.46;99407.55;1644777;86;21314;-83
2023/10/16 14:33:39;;;;;;;2.75;1.77;;;;;;;15.01;54.70;99414.67;1650543;86;21288;-83
2023/10/16 14:36:50;;;;;;;2.92;1.65;;;;;;;15.06;54.67;99421.72;1670568;84;21371;-83
2023/10/16 14:39:56;;;;;;;2.08;1.52;;;;;;;14.95;55.10;99421.59;1596092;89;21901;-84
2023/10/16 14:43:03;;;;;;;4.28;1.60;;;;;;;14.33;56.53;99426.95;1641838;87;21340;-84
2023/10/16 14:46:10;;;;;;;3.80;2.12;;;;;;;14.66;55.63;99423.97;1652110;85;21339;-84
2023/10/16 14:49:00;;;;;;;3.55;1.75;;;;;;;14.61;55.74;99452.70;1631918;87;21328;-77
2023/10/16 14:51:50;;;;;;;3.98;2.27;;;;;;;15.23;54.45;99456.92;1616044;87;21904;-78
2023/10/16 14:54:42;;;;;;;2.67;2.22;;;;;;;15.16;54.63;99468.02;1615918;87;21983;-79
2023/10/16 14:57:49;;;;;;;2.85;2.35;;;;;;;14.90;54.89;99473.75;1617214;87;21391;-79
2023/10/16 15:00:56;;;;;;;5.90;2.98;;;;;;;15.01;54.55;99469.75;1644784;86;21333;-78
2023/10/16 15:04:02;;;;;;;4.60;2.92;;;;;;;14.94;55.29;99481.34;1632465;87;21359;-79
2023/10/16 15:07:11;;;;;;;4.60;3.17;;;;;;;15.07;55.15;99478.47;1648987;85;21319;-80
2023/10/16 15:10:17;;;;;;;4.03;2.77;;;;;;;15.19;54.87;99495.63;1650639;87;21335;-80
2023/10/16 15:13:27;;;;;;;6.85;2.85;;;;;;;15.20;54.79;99497.34;1646391;87;21287;-78
2023/10/16 15:16:32;;;;;;;7.22;3.47;;;;;;;15.32;54.75;99512.87;1651836;85;21380;-78
2023/10/16 15:19:38;;;;;;;5.33;3.05;;;;;;;15.26;55.22;99523.97;1629690;87;22266;-78
2023/10/16 15:22:47;;;;;;;6.70;3.33;;;;;;;15.30;55.50;99530.18;1645827;87;21340;-79
2023/10/16 15:25:51;;;;;;;5.67;3.00;;;;;;;15.50;54.99;99529.98;1675709;84;21323;-78
2023/10/16 15:29:00;;;;;;;9.70;6.05;;;;;;;15.39;55.24;99527.98;1648622;87;21943;-79
2023/10/16 15:32:07;;;;;;;5.62;3.33;;;;;;;15.39;55.21;99531.28;1647668;85;21355;-81
2023/10/16 15:35:14;;;;;;;9.25;3.55;;;;;;;15.41;54.52;99536.02;1646075;87;21336;-79
2023/10/16 15:38:24;;;;;;;6.67;3.17;;;;;;;15.42;53.66;99540.45;1651664;87;21339;-80
2023/10/16 15:41:30;;;;;;;7.15;3.65;;;;;;;15.46;53.83;99549.42;1651690;85;21677;-80
2023/10/16 15:44:35;;;;;;;7.00;3.20;;;;;;;15.44;53.69;99545.22;1651370;87;21304;-80
2023/10/16 15:47:34;;;;;;;5.45;3.27;;;;;;;15.40;53.49;99547.58;1651497;87;21359;-80
2023/10/16 15:50:31;;;;;;;8.15;3.90;;;;;;;15.36;53.27;99554.61;1646549;87;21300;-79
2023/10/16 15:53:14;;;;;;;8.53;3.22;;;;;;;15.57;52.62;99563.85;1634254;88;21876;-81
2023/10/16 15:56:07;;;;;;;7.90;3.25;;;;;;;15.67;52.39;99566.12;1634699;86;21360;-80
2023/10/16 15:59:12;;;;;;;5.75;3.22;;;;;;;15.51;51.98;99577.14;1634237;88;21342;-80
2023/10/16 16:02:18;;;;;;;9.45;3.37;;;;;;;15.53;51.82;99582.45;1652019;85;21385;-81
2023/10/16 16:05:23;;;;;;;4.55;2.67;;;;;;;15.47;52.50;99585.55;1669931;84;21357;-80
2023/10/16 16:08:38;;;;;;;8.00;3.10;;;;;;;15.26;52.44;99573.56;1672030;86;21292;-79
2023/10/16 16:11:44;;;;;;;7.20;3.08;;;;;;;15.19;52.72;99586.53;1671407;84;21314;-82
2023/10/16 16:14:50;;;;;;;9.33;3.65;;;;;;;15.20;52.06;99583.57;1665834;86;21817;-80
2023/10/16 16:18:04;;;;;;;9.13;3.70;;;;;;;15.01;52.82;99591.45;1644885;87;21315;-80
2023/10/16 16:21:13;;;;;;;11.78;4.00;;;;;;;14.32;54.63;99598.56;1644361;86;21337;-80